sensor_id;sensor_type;location;lat;lon;timestamp;temperature;humidity
2855;DHT22;1435;49.472;10.940;2022-11-20T00:04:23;3.50;99.90
2855;DHT22;1435;49.472;10.940;2022-11-20T00:09:25;3.50;99.90
2855;DHT22;1435;49.472;10.940;2022-11-20T00:14:28;3.50;99.90
2855;DHT22;1435;49.472;10.940;2022-11-20T00:19:30;3.50;99.90
2855;DHT22;1435;49.472;10.940;2022-11-20T00:24:31;3.50;99.90
2855;DHT22;1435;49.472;10.940;2022-11-20T00:29:34;3.50;99.90
2855;DHT22;1435;49.472;10.940;2022-11-20T00:34:36;3.50;99.90
2855;DHT22;1435;49.472;10.940;2022-11-20T00:39:38;3.50;99.90
2855;DHT22;1435;49.472;10.940;2022-11-20T00:44:41;3.50;99.90
2855;DHT22;1435;49.472;10.940;2022-11-20T00:49:43;3.50;99.90
2855;DHT22;1435;49.472;10.940;2022-11-20T00:54:45;3.40;99.90
2855;DHT22;1435;49.472;10.940;2022-11-20T00:59:48;3.50;99.90
2855;DHT22;1435;49.472;10.940;2022-11-20T01:04:50;3.50;99.90
2855;DHT22;1435;49.472;10.940;2022-11-20T01:09:52;3.50;99.90
2855;DHT22;1435;49.472;10.940;2022-11-20T01:14:55;3.50;99.90
2855;DHT22;1435;49.472;10.940;2022-11-20T01:19:57;3.50;99.90
2855;DHT22;1435;49.472;10.940;2022-11-20T01:24:58;3.50;99.90
2855;DHT22;1435;49.472;10.940;2022-11-20T01:30:01;3.50;99.90
2855;DHT22;1435;49.472;10.940;2022-11-20T01:35:04;3.50;99.90
2855;DHT22;1435;49.472;10.940;2022-11-20T01:40:06;3.50;99.90
2855;DHT22;1435;49.472;10.940;2022-11-20T01:50:45;3.60;99.90
2855;DHT22;1435;49.472;10.940;2022-11-20T01:55:48;3.60;99.90
2855;DHT22;1435;49.472;10.940;2022-11-20T02:00:51;3.60;99.90
2855;DHT22;1435;49.472;10.940;2022-11-20T02:06:00;3.60;99.90
2855;DHT22;1435;49.472;10.940;2022-11-20T02:11:03;3.60;99.90
2855;DHT22;1435;49.472;10.940;2022-11-20T02:16:08;3.60;99.90
2855;DHT22;1435;49.472;10.940;2022-11-20T02:21:19;3.60;99.90
2855;DHT22;1435;49.472;10.940;2022-11-20T02:26:25;3.60;99.90
2855;DHT22;1435;49.472;10.940;2022-11-20T02:31:28;3.60;99.90
2855;DHT22;1435;49.472;10.940;2022-11-20T02:36:32;3.50;99.90
2855;DHT22;1435;49.472;10.940;2022-11-20T02:41:36;3.50;99.90
2855;DHT22;1435;49.472;10.940;2022-11-20T02:46:38;3.60;99.90
2855;DHT22;1435;49.472;10.940;2022-11-20T02:51:40;3.60;99.90
2855;DHT22;1435;49.472;10.940;2022-11-20T02:56:43;3.60;99.90
2855;DHT22;1435;49.472;10.940;2022-11-20T03:01:45;3.70;99.90
2855;DHT22;1435;49.472;10.940;2022-11-20T03:06:47;3.70;99.90
2855;DHT22;1435;49.472;10.940;2022-11-20T03:11:50;3.70;99.90
2855;DHT22;1435;49.472;10.940;2022-11-20T03:16:52;3.70;99.90
2855;DHT22;1435;49.472;10.940;2022-11-20T03:21:53;3.70;99.90
2855;DHT22;1435;49.472;10.940;2022-11-20T03:26:57;3.60;99.90
2855;DHT22;1435;49.472;10.940;2022-11-20T03:31:58;3.70;99.90
2855;DHT22;1435;49.472;10.940;2022-11-20T03:37:00;3.70;99.90
2855;DHT22;1435;49.472;10.940;2022-11-20T03:42:03;3.70;99.90
2855;DHT22;1435;49.472;10.940;2022-11-20T03:47:26;3.80;99.90
2855;DHT22;1435;49.472;10.940;2022-11-20T03:52:27;3.80;99.90
2855;DHT22;1435;49.472;10.940;2022-11-20T03:57:31;3.80;99.90
2855;DHT22;1435;49.472;10.940;2022-11-20T04:02:32;3.70;99.90
2855;DHT22;1435;49.472;10.940;2022-11-20T04:07:34;3.70;99.90
2855;DHT22;1435;49.472;10.940;2022-11-20T04:12:38;3.70;99.90
2855;DHT22;1435;49.472;10.940;2022-11-20T04:17:39;3.70;99.90
2855;DHT22;1435;49.472;10.940;2022-11-20T04:22:41;3.60;99.90
2855;DHT22;1435;49.472;10.940;2022-11-20T04:27:44;3.60;99.90
2855;DHT22;1435;49.472;10.940;2022-11-20T04:32:46;3.60;99.90
2855;DHT22;1435;49.472;10.940;2022-11-20T04:37:50;3.60;99.90
2855;DHT22;1435;49.472;10.940;2022-11-20T04:42:53;3.60;99.90
2855;DHT22;1435;49.472;10.940;2022-11-20T04:47:55;3.60;99.90
2855;DHT22;1435;49.472;10.940;2022-11-20T04:52:57;3.60;99.90
2855;DHT22;1435;49.472;10.940;2022-11-20T04:58:00;3.60;99.90
2855;DHT22;1435;49.472;10.940;2022-11-20T05:03:02;3.50;99.90
2855;DHT22;1435;49.472;10.940;2022-11-20T05:08:04;3.60;99.90
2855;DHT22;1435;49.472;10.940;2022-11-20T05:13:07;3.60;99.90
2855;DHT22;1435;49.472;10.940;2022-11-20T05:18:09;3.60;99.90
2855;DHT22;1435;49.472;10.940;2022-11-20T05:23:11;3.50;99.90
2855;DHT22;1435;49.472;10.940;2022-11-20T05:28:14;3.60;99.90
2855;DHT22;1435;49.472;10.940;2022-11-20T05:33:16;3.60;99.90
2855;DHT22;1435;49.472;10.940;2022-11-20T05:38:18;3.70;99.90
2855;DHT22;1435;49.472;10.940;2022-11-20T05:43:21;3.70;99.90
2855;DHT22;1435;49.472;10.940;2022-11-20T05:48:23;3.60;99.90
2855;DHT22;1435;49.472;10.940;2022-11-20T05:53:25;3.70;99.90
2855;DHT22;1435;49.472;10.940;2022-11-20T05:58:29;3.80;99.90
2855;DHT22;1435;49.472;10.940;2022-11-20T06:03:31;3.70;99.90
2855;DHT22;1435;49.472;10.940;2022-11-20T06:08:33;3.70;99.90
2855;DHT22;1435;49.472;10.940;2022-11-20T06:13:37;3.70;99.90
2855;DHT22;1435;49.472;10.940;2022-11-20T06:18:39;3.70;99.90
2855;DHT22;1435;49.472;10.940;2022-11-20T06:23:41;3.70;99.90
2855;DHT22;1435;49.472;10.940;2022-11-20T06:28:44;3.70;99.90
2855;DHT22;1435;49.472;10.940;2022-11-20T06:33:46;3.70;99.90
2855;DHT22;1435;49.472;10.940;2022-11-20T06:38:48;3.70;99.90
2855;DHT22;1435;49.472;10.940;2022-11-20T06:43:52;3.70;99.90
2855;DHT22;1435;49.472;10.940;2022-11-20T06:48:53;3.70;99.90
2855;DHT22;1435;49.472;10.940;2022-11-20T06:53:55;3.70;99.90
2855;DHT22;1435;49.472;10.940;2022-11-20T06:58:58;3.80;99.90
2855;DHT22;1435;49.472;10.940;2022-11-20T07:04:05;3.80;99.90
2855;DHT22;1435;49.472;10.940;2022-11-20T07:09:06;3.80;99.90
2855;DHT22;1435;49.472;10.940;2022-11-20T07:14:09;3.80;99.90
2855;DHT22;1435;49.472;10.940;2022-11-20T07:19:11;3.80;99.90
2855;DHT22;1435;49.472;10.940;2022-11-20T07:24:13;3.80;99.90
2855;DHT22;1435;49.472;10.940;2022-11-20T07:29:16;3.80;99.90
2855;DHT22;1435;49.472;10.940;2022-11-20T07:34:18;3.80;99.90
2855;DHT22;1435;49.472;10.940;2022-11-20T07:39:20;3.80;99.90
2855;DHT22;1435;49.472;10.940;2022-11-20T07:44:23;3.80;99.90
2855;DHT22;1435;49.472;10.940;2022-11-20T07:49:25;3.90;99.90
2855;DHT22;1435;49.472;10.940;2022-11-20T07:54:27;3.90;99.90
2855;DHT22;1435;49.472;10.940;2022-11-20T07:59:30;3.90;99.90
2855;DHT22;1435;49.472;10.940;2022-11-20T08:04:31;3.90;99.90
2855;DHT22;1435;49.472;10.940;2022-11-20T08:09:33;3.90;99.90
2855;DHT22;1435;49.472;10.940;2022-11-20T08:14:36;4.00;99.90
2855;DHT22;1435;49.472;10.940;2022-11-20T08:19:38;4.00;99.90
2855;DHT22;1435;49.472;10.940;2022-11-20T08:24:40;4.00;99.90
2855;DHT22;1435;49.472;10.940;2022-11-20T08:29:43;3.90;99.90
2855;DHT22;1435;49.472;10.940;2022-11-20T08:34:45;3.90;99.90
2855;DHT22;1435;49.472;10.940;2022-11-20T08:39:46;3.90;99.90
2855;DHT22;1435;49.472;10.940;2022-11-20T08:44:50;4.00;99.90
2855;DHT22;1435;49.472;10.940;2022-11-20T08:49:51;4.00;99.90
2855;DHT22;1435;49.472;10.940;2022-11-20T08:54:53;4.00;99.90
2855;DHT22;1435;49.472;10.940;2022-11-20T08:59:56;4.10;99.90
2855;DHT22;1435;49.472;10.940;2022-11-20T09:04:58;4.10;99.90
2855;DHT22;1435;49.472;10.940;2022-11-20T09:10:00;4.10;99.90
2855;DHT22;1435;49.472;10.940;2022-11-20T09:15:03;4.00;99.90
2855;DHT22;1435;49.472;10.940;2022-11-20T09:20:06;4.00;99.90
2855;DHT22;1435;49.472;10.940;2022-11-20T09:25:08;4.00;99.90
2855;DHT22;1435;49.472;10.940;2022-11-20T09:30:13;4.10;99.90
2855;DHT22;1435;49.472;10.940;2022-11-20T09:35:15;4.10;99.90
2855;DHT22;1435;49.472;10.940;2022-11-20T09:40:21;4.10;99.90
2855;DHT22;1435;49.472;10.940;2022-11-20T09:45:37;4.20;99.90
2855;DHT22;1435;49.472;10.940;2022-11-20T09:50:43;3.90;99.90
2855;DHT22;1435;49.472;10.940;2022-11-20T09:55:48;4.10;99.90
2855;DHT22;1435;49.472;10.940;2022-11-20T10:00:53;4.10;99.90
2855;DHT22;1435;49.472;10.940;2022-11-20T10:05:59;4.00;99.90
2855;DHT22;1435;49.472;10.940;2022-11-20T10:11:05;4.20;99.90
2855;DHT22;1435;49.472;10.940;2022-11-20T10:16:21;4.20;99.90
2855;DHT22;1435;49.472;10.940;2022-11-20T10:21:33;4.30;99.90
2855;DHT22;1435;49.472;10.940;2022-11-20T10:26:44;4.20;99.90
2855;DHT22;1435;49.472;10.940;2022-11-20T10:31:56;4.30;99.90
2855;DHT22;1435;49.472;10.940;2022-11-20T10:37:02;4.30;99.90
2855;DHT22;1435;49.472;10.940;2022-11-20T10:42:10;4.30;99.90
2855;DHT22;1435;49.472;10.940;2022-11-20T10:47:16;4.40;99.90
2855;DHT22;1435;49.472;10.940;2022-11-20T10:52:22;4.30;99.90
2855;DHT22;1435;49.472;10.940;2022-11-20T10:57:46;4.20;99.90
2855;DHT22;1435;49.472;10.940;2022-11-20T11:02:54;4.10;99.90
2855;DHT22;1435;49.472;10.940;2022-11-20T11:07:58;4.10;99.90
2855;DHT22;1435;49.472;10.940;2022-11-20T11:13:00;4.30;99.90
2855;DHT22;1435;49.472;10.940;2022-11-20T11:18:04;4.20;99.90
2855;DHT22;1435;49.472;10.940;2022-11-20T11:23:26;4.10;99.90
2855;DHT22;1435;49.472;10.940;2022-11-20T11:28:30;4.10;99.90
2855;DHT22;1435;49.472;10.940;2022-11-20T11:33:34;4.20;99.90
2855;DHT22;1435;49.472;10.940;2022-11-20T11:38:38;4.40;99.90
2855;DHT22;1435;49.472;10.940;2022-11-20T11:43:51;4.30;99.90
2855;DHT22;1435;49.472;10.940;2022-11-20T11:49:27;4.10;99.90
2855;DHT22;1435;49.472;10.940;2022-11-20T11:54:35;4.10;99.90
2855;DHT22;1435;49.472;10.940;2022-11-20T11:59:44;4.10;99.90
2855;DHT22;1435;49.472;10.940;2022-11-20T12:04:54;3.90;99.90
2855;DHT22;1435;49.472;10.940;2022-11-20T12:09:58;3.80;99.90
2855;DHT22;1435;49.472;10.940;2022-11-20T12:15:02;4.10;99.90
2855;DHT22;1435;49.472;10.940;2022-11-20T12:20:11;4.40;99.90
2855;DHT22;1435;49.472;10.940;2022-11-20T12:25:17;4.50;99.90
2855;DHT22;1435;49.472;10.940;2022-11-20T12:30:22;4.50;99.90
2855;DHT22;1435;49.472;10.940;2022-11-20T12:35:43;4.70;99.90
2855;DHT22;1435;49.472;10.940;2022-11-20T12:40:52;4.60;99.90
2855;DHT22;1435;49.472;10.940;2022-11-20T12:46:13;4.70;99.90
2855;DHT22;1435;49.472;10.940;2022-11-20T12:56:57;4.70;99.90
2855;DHT22;1435;49.472;10.940;2022-11-20T13:02:12;4.60;99.90
2855;DHT22;1435;49.472;10.940;2022-11-20T13:07:19;4.70;99.90
2855;DHT22;1435;49.472;10.940;2022-11-20T13:12:25;4.80;99.90
2855;DHT22;1435;49.472;10.940;2022-11-20T13:17:34;4.70;99.90
2855;DHT22;1435;49.472;10.940;2022-11-20T13:22:45;4.70;99.90
2855;DHT22;1435;49.472;10.940;2022-11-20T13:27:47;4.60;99.90
2855;DHT22;1435;49.472;10.940;2022-11-20T13:32:51;4.60;99.90
2855;DHT22;1435;49.472;10.940;2022-11-20T13:38:03;4.60;99.90
2855;DHT22;1435;49.472;10.940;2022-11-20T13:43:18;4.70;99.90
2855;DHT22;1435;49.472;10.940;2022-11-20T13:48:22;4.70;99.90
2855;DHT22;1435;49.472;10.940;2022-11-20T13:53:37;4.70;99.90
2855;DHT22;1435;49.472;10.940;2022-11-20T13:58:53;4.70;99.90
2855;DHT22;1435;49.472;10.940;2022-11-20T14:03:58;4.90;99.90
2855;DHT22;1435;49.472;10.940;2022-11-20T14:09:02;4.90;99.90
2855;DHT22;1435;49.472;10.940;2022-11-20T14:14:13;5.00;99.90
2855;DHT22;1435;49.472;10.940;2022-11-20T14:19:36;5.00;99.90
2855;DHT22;1435;49.472;10.940;2022-11-20T14:24:40;5.10;99.90
2855;DHT22;1435;49.472;10.940;2022-11-20T14:29:43;5.10;99.90
2855;DHT22;1435;49.472;10.940;2022-11-20T14:34:48;5.00;99.90
2855;DHT22;1435;49.472;10.940;2022-11-20T14:39:53;5.00;99.90
2855;DHT22;1435;49.472;10.940;2022-11-20T14:44:58;5.00;99.90
2855;DHT22;1435;49.472;10.940;2022-11-20T14:50:01;5.00;99.90
2855;DHT22;1435;49.472;10.940;2022-11-20T14:55:05;5.10;99.90
2855;DHT22;1435;49.472;10.940;2022-11-20T15:00:17;4.90;99.90
2855;DHT22;1435;49.472;10.940;2022-11-20T15:05:22;5.00;99.90
2855;DHT22;1435;49.472;10.940;2022-11-20T15:10:26;4.80;99.90
2855;DHT22;1435;49.472;10.940;2022-11-20T15:15:31;4.80;99.90
2855;DHT22;1435;49.472;10.940;2022-11-20T15:20:36;4.80;99.90
2855;DHT22;1435;49.472;10.940;2022-11-20T15:25:39;4.80;99.90
2855;DHT22;1435;49.472;10.940;2022-11-20T15:30:42;4.90;99.90
2855;DHT22;1435;49.472;10.940;2022-11-20T15:35:44;4.80;99.90
2855;DHT22;1435;49.472;10.940;2022-11-20T15:40:47;4.80;99.90
2855;DHT22;1435;49.472;10.940;2022-11-20T15:45:50;4.80;99.90
2855;DHT22;1435;49.472;10.940;2022-11-20T15:50:56;4.90;99.90
2855;DHT22;1435;49.472;10.940;2022-11-20T15:55:59;4.90;99.90
2855;DHT22;1435;49.472;10.940;2022-11-20T16:01:01;4.80;99.90
2855;DHT22;1435;49.472;10.940;2022-11-20T16:06:03;4.80;99.90
2855;DHT22;1435;49.472;10.940;2022-11-20T16:11:06;4.90;99.90
2855;DHT22;1435;49.472;10.940;2022-11-20T16:16:19;4.80;99.90
2855;DHT22;1435;49.472;10.940;2022-11-20T16:21:21;4.90;99.90
2855;DHT22;1435;49.472;10.940;2022-11-20T16:26:29;5.00;99.90
2855;DHT22;1435;49.472;10.940;2022-11-20T16:31:31;4.90;99.90
2855;DHT22;1435;49.472;10.940;2022-11-20T16:36:33;5.00;99.90
2855;DHT22;1435;49.472;10.940;2022-11-20T16:41:37;4.90;99.90
2855;DHT22;1435;49.472;10.940;2022-11-20T16:46:39;4.80;99.90
2855;DHT22;1435;49.472;10.940;2022-11-20T16:51:41;4.90;99.90
2855;DHT22;1435;49.472;10.940;2022-11-20T16:56:44;4.90;99.90
2855;DHT22;1435;49.472;10.940;2022-11-20T17:01:47;4.90;99.90
2855;DHT22;1435;49.472;10.940;2022-11-20T17:06:49;4.90;99.90
2855;DHT22;1435;49.472;10.940;2022-11-20T17:11:52;4.90;99.90
2855;DHT22;1435;49.472;10.940;2022-11-20T17:16:54;4.90;99.90
2855;DHT22;1435;49.472;10.940;2022-11-20T17:21:56;4.90;99.90
2855;DHT22;1435;49.472;10.940;2022-11-20T17:26:59;4.90;99.90
2855;DHT22;1435;49.472;10.940;2022-11-20T17:32:01;4.90;99.90
2855;DHT22;1435;49.472;10.940;2022-11-20T17:37:03;4.90;99.90
2855;DHT22;1435;49.472;10.940;2022-11-20T17:42:06;4.80;99.90
2855;DHT22;1435;49.472;10.940;2022-11-20T17:47:25;4.70;99.90
2855;DHT22;1435;49.472;10.940;2022-11-20T17:52:27;4.70;99.90
2855;DHT22;1435;49.472;10.940;2022-11-20T17:57:30;4.60;99.90
2855;DHT22;1435;49.472;10.940;2022-11-20T18:02:49;4.60;99.90
2855;DHT22;1435;49.472;10.940;2022-11-20T18:07:51;4.60;99.90
2855;DHT22;1435;49.472;10.940;2022-11-20T18:12:55;4.60;99.90
2855;DHT22;1435;49.472;10.940;2022-11-20T18:17:57;4.60;99.90
2855;DHT22;1435;49.472;10.940;2022-11-20T18:22:58;4.60;99.90
2855;DHT22;1435;49.472;10.940;2022-11-20T18:28:02;4.60;99.90
2855;DHT22;1435;49.472;10.940;2022-11-20T18:33:04;4.60;99.90
2855;DHT22;1435;49.472;10.940;2022-11-20T18:38:06;4.60;99.90
2855;DHT22;1435;49.472;10.940;2022-11-20T18:43:10;4.60;99.90
2855;DHT22;1435;49.472;10.940;2022-11-20T18:48:30;4.60;99.90
2855;DHT22;1435;49.472;10.940;2022-11-20T18:53:33;4.60;99.90
2855;DHT22;1435;49.472;10.940;2022-11-20T18:58:37;4.60;99.90
2855;DHT22;1435;49.472;10.940;2022-11-20T19:03:40;4.60;99.90
2855;DHT22;1435;49.472;10.940;2022-11-20T19:08:43;4.60;99.90
2855;DHT22;1435;49.472;10.940;2022-11-20T19:13:46;4.60;99.90
2855;DHT22;1435;49.472;10.940;2022-11-20T19:18:48;4.60;99.90
2855;DHT22;1435;49.472;10.940;2022-11-20T19:23:52;4.60;99.90
2855;DHT22;1435;49.472;10.940;2022-11-20T19:28:56;4.60;99.90
2855;DHT22;1435;49.472;10.940;2022-11-20T19:33:59;4.70;99.90
2855;DHT22;1435;49.472;10.940;2022-11-20T19:39:02;4.80;99.90
2855;DHT22;1435;49.472;10.940;2022-11-20T19:44:08;4.80;99.90
2855;DHT22;1435;49.472;10.940;2022-11-20T19:49:11;4.90;99.90
2855;DHT22;1435;49.472;10.940;2022-11-20T19:54:14;5.00;99.90
2855;DHT22;1435;49.472;10.940;2022-11-20T19:59:17;5.00;99.90
2855;DHT22;1435;49.472;10.940;2022-11-20T20:04:19;5.00;99.90
2855;DHT22;1435;49.472;10.940;2022-11-20T20:09:21;5.10;99.90
2855;DHT22;1435;49.472;10.940;2022-11-20T20:14:24;5.10;99.90
2855;DHT22;1435;49.472;10.940;2022-11-20T20:19:27;5.20;99.90
2855;DHT22;1435;49.472;10.940;2022-11-20T20:24:29;5.20;99.90
2855;DHT22;1435;49.472;10.940;2022-11-20T20:29:32;5.30;99.90
2855;DHT22;1435;49.472;10.940;2022-11-20T20:34:34;5.40;99.90
2855;DHT22;1435;49.472;10.940;2022-11-20T20:39:35;5.40;99.90
2855;DHT22;1435;49.472;10.940;2022-11-20T20:44:39;5.50;99.90
2855;DHT22;1435;49.472;10.940;2022-11-20T20:49:58;5.60;99.90
2855;DHT22;1435;49.472;10.940;2022-11-20T20:55:00;5.60;99.90
2855;DHT22;1435;49.472;10.940;2022-11-20T21:00:04;5.40;99.90
2855;DHT22;1435;49.472;10.940;2022-11-20T21:05:07;5.50;99.90
2855;DHT22;1435;49.472;10.940;2022-11-20T21:10:09;5.50;99.90
2855;DHT22;1435;49.472;10.940;2022-11-20T21:15:12;5.60;99.90
2855;DHT22;1435;49.472;10.940;2022-11-20T21:20:14;5.70;99.90
2855;DHT22;1435;49.472;10.940;2022-11-20T21:25:30;5.70;99.90
2855;DHT22;1435;49.472;10.940;2022-11-20T21:30:34;5.70;99.90
2855;DHT22;1435;49.472;10.940;2022-11-20T21:35:36;5.80;99.90
2855;DHT22;1435;49.472;10.940;2022-11-20T21:40:38;5.70;99.90
2855;DHT22;1435;49.472;10.940;2022-11-20T21:45:41;5.70;99.90
2855;DHT22;1435;49.472;10.940;2022-11-20T21:50:43;5.70;99.90
2855;DHT22;1435;49.472;10.940;2022-11-20T21:55:52;5.90;99.90
2855;DHT22;1435;49.472;10.940;2022-11-20T22:00:55;5.80;99.90
2855;DHT22;1435;49.472;10.940;2022-11-20T22:05:58;5.80;99.90
2855;DHT22;1435;49.472;10.940;2022-11-20T22:11:01;5.90;99.90
2855;DHT22;1435;49.472;10.940;2022-11-20T22:16:05;6.00;99.90
2855;DHT22;1435;49.472;10.940;2022-11-20T22:21:07;5.90;99.90
2855;DHT22;1435;49.472;10.940;2022-11-20T22:26:10;5.90;99.90
2855;DHT22;1435;49.472;10.940;2022-11-20T22:31:14;5.90;99.90
2855;DHT22;1435;49.472;10.940;2022-11-20T22:36:17;5.90;99.90
2855;DHT22;1435;49.472;10.940;2022-11-20T22:41:22;5.90;99.90
2855;DHT22;1435;49.472;10.940;2022-11-20T22:46:27;5.90;99.90
2855;DHT22;1435;49.472;10.940;2022-11-20T22:51:30;5.80;99.90
2855;DHT22;1435;49.472;10.940;2022-11-20T22:56:32;5.70;99.90
2855;DHT22;1435;49.472;10.940;2022-11-20T23:01:36;5.60;99.90
2855;DHT22;1435;49.472;10.940;2022-11-20T23:06:38;5.70;99.90
2855;DHT22;1435;49.472;10.940;2022-11-20T23:11:40;5.70;99.90
2855;DHT22;1435;49.472;10.940;2022-11-20T23:16:43;5.70;99.90
2855;DHT22;1435;49.472;10.940;2022-11-20T23:21:44;5.80;99.90
2855;DHT22;1435;49.472;10.940;2022-11-20T23:26:47;5.70;99.90
2855;DHT22;1435;49.472;10.940;2022-11-20T23:31:50;5.80;99.90
2855;DHT22;1435;49.472;10.940;2022-11-20T23:36:52;5.70;99.90
2855;DHT22;1435;49.472;10.940;2022-11-20T23:41:54;5.60;99.90
2855;DHT22;1435;49.472;10.940;2022-11-20T23:46:57;5.50;99.90
2855;DHT22;1435;49.472;10.940;2022-11-20T23:51:59;5.60;99.90
2855;DHT22;1435;49.472;10.940;2022-11-20T23:57:01;5.90;99.90
